Arlington, OR (97812)

12:07 PM PDT on July 24, 2016 (GMT -0700)
MesoWest | | Change Station

Elev 890 ft 45.72 °N, 120.18 °W | Updated 35 minutes ago

Clear
Clear
78 °F
Feels Like 79 °F
N
3
Wind Variable Wind from NE
Gusts 3.0 mph

Today
High -- | Low -- °F
--% Chance of Precip.
Yesterday
High -- | Low -- °F
Precip. -- in
Pressure 30.02 in
Visibility 10.0 miles
Clouds Clear
Heat Index 79 °F
Dew Point 51 °F
Humidity 39%
Rainfall in
Snow Depth Not available.
5:35 AM 8:38 PM
Waning Gibbous, 74% visible
METAR KHRI 241853Z AUTO 34006KT 10SM CLR 28/10 A3003 RMK AO2 SLP165 T02830100
Pressure 30.02 in
Visibility 10.0 miles
Clouds Clear
Heat Index 79 °F
Dew Point 51 °F
Humidity 39%
Rainfall in
Snow Depth Not available.
5:35 AM 8:38 PM
Waning Gibbous, 74% visible
METAR KHRI 241853Z AUTO 34006KT 10SM CLR 28/10 A3003 RMK AO2 SLP165 T02830100

10-Day Weather Forecast

Almanac

Astronomy

Jul. 24, 2016 Rise Set
Actual Time
Civil Twilight
Nautical Twilight
Astronomical Twilight
Moon
Length of Visible Light
Length of Day
Tomorrow will be .
, % of the Moon is Illuminated

Today's Extremes

State Highs State Lows

Community

WunderPhotos

Upload Photos

1,927,163 photos uploaded!

WunderBlog® & News

Nearby

Air Quality

  Air Quality AQ Index Pollutant
Not available.

Snow Depth

Station Depth Elevation

Earthquake Activity

City Distance Mag. Time & Date
Minimum magnitude displayed is 2.5.

Coastal Water Temperatures

Place Temperature

Stations

Nearby Weather Stations

Station Location Temp. Windchill Dew Point Humidity Wind Precip. Elev Updated Type
                   

Watches & Warnings

There are currently no watches in effect.